Terminal Aerodrome Forecast
Issued by NWS

Home | Current Version | Previous Version | Text Only | Print | Product List | Glossary Off
Versions: 1 2 3 4 5 6 7 8 9 10 11 12 13 14 15 16 17 18 19

207
FTUS43 KMPX 241120
TAFRNH
TAF
KRNH 241120Z 2412/2512 03004KT 2SM -RA BR OVC005
     FM241600 02009KT P6SM OVC010
     FM242000 03010KT P6SM OVC015=

USA.gov is the U.S. government's official web portal to all federal, state and local government web resources and services.